Time;durP1;ratioP1;P1;durP2;ratioP2;P2;SDS_P1;SDS_P2;PMS_P1;PMS_P2;Temp;Humidity;BMP_temperature;BMP_pressure;BME280_temperature;BME280_humidity;BME280_pressure;Samples;Min_cycle;Max_cycle;Signal;HPM_P1;HPM_P2
2022/11/22 00:02:22;;;;;;;;;;;3.40;99.90;;;;;;5074446;28;19916;-76
2022/11/22 00:04:47;;;;;;;;;;;3.40;99.90;;;;;;5070955;28;19916;-75
2022/11/22 00:07:13;;;;;;;;;;;3.40;99.90;;;;;;5073105;28;19963;-75
2022/11/22 00:09:38;;;;;;;;;;;3.40;99.90;;;;;;5049035;28;19917;-76
2022/11/22 00:12:04;;;;;;;;;;;3.40;99.90;;;;;;5055108;28;20378;-75
2022/11/22 00:14:30;;;;;;;;;;;3.40;99.90;;;;;;5058374;28;20038;-76
2022/11/22 00:16:58;;;;;;;;;;;3.40;99.90;;;;;;5072600;28;19986;-76
2022/11/22 00:19:24;;;;;;;;;;;3.40;99.90;;;;;;5062028;28;19939;-76
2022/11/22 00:21:50;;;;;;;;;;;3.40;99.90;;;;;;5049663;28;19920;-76
2022/11/22 00:24:15;;;;;;;;;;;3.40;99.90;;;;;;5053273;28;19923;-76
2022/11/22 00:26:41;;;;;;;;;;;3.40;99.90;;;;;;5053734;28;19920;-76
2022/11/22 00:29:06;;;;;;;;;;;3.30;99.90;;;;;;5055792;28;19970;-75
2022/11/22 00:31:32;;;;;;;;;;;3.30;99.90;;;;;;5070338;28;19948;-76
2022/11/22 00:33:58;;;;;;;;;;;3.30;99.90;;;;;;5073898;28;19916;-75
2022/11/22 00:36:23;;;;;;;;;;;3.30;99.90;;;;;;5073800;28;20524;-76
2022/11/22 00:38:49;;;;;;;;;;;3.30;99.90;;;;;;5057595;28;19927;-76
2022/11/22 00:41:15;;;;;;;;;;;3.30;99.90;;;;;;5054031;28;19943;-76
2022/11/22 00:43:40;;;;;;;;;;;3.30;99.90;;;;;;5068643;28;19931;-76
2022/11/22 00:46:06;;;;;;;;;;;3.30;99.90;;;;;;5072301;28;20229;-76
2022/11/22 00:48:31;;;;;;;;;;;3.30;99.90;;;;;;5073801;28;19999;-76
2022/11/22 00:50:57;;;;;;;;;;;3.30;99.90;;;;;;5068896;28;19931;-76
2022/11/22 00:53:23;;;;;;;;;;;3.30;99.90;;;;;;5056040;28;19916;-76
2022/11/22 00:55:49;;;;;;;;;;;3.30;99.90;;;;;;5090053;28;19974;-76
2022/11/22 00:58:15;;;;;;;;;;;3.30;99.90;;;;;;5053145;28;20493;-74
2022/11/22 01:00:40;;;;;;;;;;;3.30;99.90;;;;;;5054089;28;19969;-77
2022/11/22 01:03:09;;;;;;;;;;;3.30;99.90;;;;;;5046203;28;19927;-77
2022/11/22 01:05:34;;;;;;;;;;;3.30;99.90;;;;;;5057646;28;20219;-76
2022/11/22 01:08:00;;;;;;;;;;;3.30;99.90;;;;;;5033960;28;19943;-76
2022/11/22 01:10:26;;;;;;;;;;;3.30;99.90;;;;;;5041299;28;19916;-77
2022/11/22 01:12:51;;;;;;;;;;;3.30;99.90;;;;;;5041790;28;20232;-77
2022/11/22 01:15:17;;;;;;;;;;;3.30;99.90;;;;;;5046286;28;19924;-77
2022/11/22 01:17:42;;;;;;;;;;;3.30;99.90;;;;;;5067691;28;19920;-77
2022/11/22 01:20:08;;;;;;;;;;;3.30;99.90;;;;;;5063884;28;19920;-77
2022/11/22 01:22:34;;;;;;;;;;;3.30;99.90;;;;;;5050244;28;20354;-74
2022/11/22 01:24:59;;;;;;;;;;;3.30;99.90;;;;;;5050548;28;19993;-74
2022/11/22 01:27:25;;;;;;;;;;;3.30;99.90;;;;;;5047890;28;19916;-74
2022/11/22 01:29:50;;;;;;;;;;;3.40;99.90;;;;;;5062103;28;19990;-77
2022/11/22 01:32:16;;;;;;;;;;;3.40;99.90;;;;;;5066222;28;19916;-75
2022/11/22 01:34:42;;;;;;;;;;;3.40;99.90;;;;;;5067222;28;20419;-75
2022/11/22 01:37:07;;;;;;;;;;;3.40;99.90;;;;;;5066882;28;19972;-75
2022/11/22 01:39:33;;;;;;;;;;;3.40;99.90;;;;;;5050571;28;19920;-75
2022/11/22 01:41:58;;;;;;;;;;;3.40;99.90;;;;;;5066660;28;20212;-75
2022/11/22 01:44:31;;;;;;;;;;;3.40;99.90;;;;;;5065837;28;20423;-75
2022/11/22 01:47:04;;;;;;;;;;;3.40;99.90;;;;;;5067604;28;20038;-75
2022/11/22 01:49:29;;;;;;;;;;;3.40;99.90;;;;;;5068822;28;20416;-75
2022/11/22 01:52:00;;;;;;;;;;;3.40;99.90;;;;;;5069295;28;19924;-75
2022/11/22 01:54:28;;;;;;;;;;;3.40;99.90;;;;;;5064290;28;20250;-75
2022/11/22 01:56:57;;;;;;;;;;;3.40;99.90;;;;;;5079652;28;20461;-75
2022/11/22 01:59:24;;;;;;;;;;;3.40;99.90;;;;;;5051650;28;19931;-75
2022/11/22 02:01:58;;;;;;;;;;;3.40;99.90;;;;;;5051048;28;19920;-75
2022/11/22 02:04:25;;;;;;;;;;;3.40;99.90;;;;;;5053404;28;19924;-75
2022/11/22 02:07:01;;;;;;;;;;;3.40;99.90;;;;;;5064402;28;20011;-75
2022/11/22 02:09:27;;;;;;;;;;;3.40;99.90;;;;;;5069681;28;19944;-76
2022/11/22 02:11:54;;;;;;;;;;;3.40;99.90;;;;;;5050117;28;20214;-75
2022/11/22 02:14:23;;;;;;;;;;;3.40;99.90;;;;;;5068818;28;19920;-75
2022/11/22 02:16:48;;;;;;;;;;;3.50;99.90;;;;;;5067662;28;20262;-75
2022/11/22 02:19:37;;;;;;;;;;;3.50;99.90;;;;;;5045261;28;19925;-75
2022/11/22 02:22:09;;;;;;;;;;;3.50;99.90;;;;;;5074260;28;19920;-76
2022/11/22 02:24:38;;;;;;;;;;;3.50;99.90;;;;;;5070864;28;20423;-76
2022/11/22 02:27:03;;;;;;;;;;;3.50;99.90;;;;;;5049240;28;19917;-76
2022/11/22 02:29:30;;;;;;;;;;;3.50;99.90;;;;;;5069116;28;19923;-75
2022/11/22 02:31:55;;;;;;;;;;;3.50;99.90;;;;;;5053291;28;19916;-75
2022/11/22 02:34:21;;;;;;;;;;;3.50;99.90;;;;;;5050476;28;19962;-75
2022/11/22 02:36:51;;;;;;;;;;;3.50;99.90;;;;;;5050823;28;20024;-75
2022/11/22 02:39:19;;;;;;;;;;;3.50;99.90;;;;;;5065091;28;19924;-75
2022/11/22 02:41:44;;;;;;;;;;;3.50;99.90;;;;;;5060558;28;19921;-75
2022/11/22 02:44:11;;;;;;;;;;;3.50;99.90;;;;;;5064595;28;20362;-75
2022/11/22 02:46:44;;;;;;;;;;;3.60;99.90;;;;;;5062469;28;20022;-76
2022/11/22 02:49:10;;;;;;;;;;;3.60;99.90;;;;;;5062819;28;20312;-75
2022/11/22 02:51:35;;;;;;;;;;;3.50;99.90;;;;;;5059286;28;19916;-75
2022/11/22 02:54:01;;;;;;;;;;;3.60;99.90;;;;;;5060557;28;20019;-75
2022/11/22 02:56:27;;;;;;;;;;;3.60;99.90;;;;;;5052141;28;20346;-75
2022/11/22 02:58:52;;;;;;;;;;;3.60;99.90;;;;;;5058991;28;19931;-75
2022/11/22 03:01:18;;;;;;;;;;;3.60;99.90;;;;;;5045093;28;19916;-75
2022/11/22 03:03:43;;;;;;;;;;;3.60;99.90;;;;;;5064217;28;20396;-75
2022/11/22 03:06:09;;;;;;;;;;;3.60;99.90;;;;;;5044066;28;19966;-75
2022/11/22 03:08:35;;;;;;;;;;;3.60;99.90;;;;;;5049878;28;19930;-75
2022/11/22 03:11:00;;;;;;;;;;;3.60;99.90;;;;;;5069402;28;20372;-75
2022/11/22 03:13:26;;;;;;;;;;;3.60;99.90;;;;;;5063883;28;19927;-75
2022/11/22 03:15:51;;;;;;;;;;;3.60;99.90;;;;;;5064101;28;19916;-75
2022/11/22 03:18:17;;;;;;;;;;;3.60;99.90;;;;;;5040693;28;19932;-75
2022/11/22 03:20:43;;;;;;;;;;;3.60;99.90;;;;;;5045152;28;19917;-75
2022/11/22 03:23:08;;;;;;;;;;;3.60;99.90;;;;;;5051338;28;19924;-75
2022/11/22 03:25:37;;;;;;;;;;;3.60;99.90;;;;;;5045288;28;20462;-77
2022/11/22 03:28:03;;;;;;;;;;;3.60;99.90;;;;;;5069242;28;19923;-75
2022/11/22 03:30:28;;;;;;;;;;;3.50;99.90;;;;;;5067220;28;19916;-75
2022/11/22 03:32:54;;;;;;;;;;;3.50;99.90;;;;;;5069464;28;20031;-75
2022/11/22 03:35:20;;;;;;;;;;;3.50;99.90;;;;;;5049529;28;19963;-75
2022/11/22 03:37:45;;;;;;;;;;;3.50;99.90;;;;;;5054091;28;19931;-75
2022/11/22 03:40:11;;;;;;;;;;;3.50;99.90;;;;;;5052352;28;19916;-74
2022/11/22 03:42:38;;;;;;;;;;;3.50;99.90;;;;;;5061558;28;19916;-75
2022/11/22 03:45:04;;;;;;;;;;;3.50;99.90;;;;;;5061878;28;19916;-75
2022/11/22 03:47:29;;;;;;;;;;;3.50;99.90;;;;;;5063979;28;20023;-75
2022/11/22 03:49:55;;;;;;;;;;;3.60;99.90;;;;;;5043856;28;19962;-76
2022/11/22 03:52:20;;;;;;;;;;;3.60;99.90;;;;;;5051916;28;19967;-75
2022/11/22 03:54:46;;;;;;;;;;;3.60;99.90;;;;;;5059821;28;19993;-76
2022/11/22 03:57:12;;;;;;;;;;;3.60;99.90;;;;;;5064821;28;19942;-75
2022/11/22 03:59:37;;;;;;;;;;;3.60;99.90;;;;;;5051972;28;19921;-75
2022/11/22 04:02:03;;;;;;;;;;;3.60;99.90;;;;;;5072035;28;20391;-75
2022/11/22 04:04:28;;;;;;;;;;;3.60;99.90;;;;;;5066002;28;19920;-75
2022/11/22 04:06:54;;;;;;;;;;;3.70;99.90;;;;;;5074955;28;20013;-75
2022/11/22 04:09:20;;;;;;;;;;;3.70;99.90;;;;;;5064001;28;19920;-75
2022/11/22 04:11:45;;;;;;;;;;;3.70;99.90;;;;;;5054871;28;19962;-75
2022/11/22 04:16:55;;;;;;;;;;;3.70;99.90;;;;;;5062251;28;20206;-75
2022/11/22 04:19:21;;;;;;;;;;;3.80;99.90;;;;;;5057697;28;19994;-75
2022/11/22 04:21:46;;;;;;;;;;;3.80;99.90;;;;;;5076189;28;19921;-75
2022/11/22 04:26:57;;;;;;;;;;;3.80;99.90;;;;;;5062299;28;19956;-75
2022/11/22 04:29:22;;;;;;;;;;;3.80;99.90;;;;;;5057899;28;19917;-75
2022/11/22 04:34:33;;;;;;;;;;;3.80;99.90;;;;;;5068110;28;20368;-75
2022/11/22 04:36:59;;;;;;;;;;;3.90;99.90;;;;;;5074670;28;19966;-75
2022/11/22 04:39:25;;;;;;;;;;;3.90;99.90;;;;;;5052928;28;20237;-75
2022/11/22 04:44:39;;;;;;;;;;;3.90;99.90;;;;;;5069835;28;19917;-75
2022/11/22 04:47:06;;;;;;;;;;;3.90;99.90;;;;;;5073180;28;19960;-75
2022/11/22 04:49:31;;;;;;;;;;;3.90;99.90;;;;;;5069581;28;19920;-75
2022/11/22 04:54:41;;;;;;;;;;;4.00;99.90;;;;;;5062924;28;19955;-75
2022/11/22 04:57:07;;;;;;;;;;;4.00;99.90;;;;;;5049154;28;19929;-75
2022/11/22 04:59:32;;;;;;;;;;;4.00;99.90;;;;;;5051541;28;20022;-75
2022/11/22 05:01:58;;;;;;;;;;;4.00;99.90;;;;;;5066618;28;20345;-75
2022/11/22 05:04:24;;;;;;;;;;;4.00;99.90;;;;;;5044833;28;20058;-75
2022/11/22 05:06:50;;;;;;;;;;;4.00;99.90;;;;;;5052999;28;19920;-75
2022/11/22 05:09:16;;;;;;;;;;;4.00;99.90;;;;;;5054085;28;20379;-75
2022/11/22 05:11:41;;;;;;;;;;;4.10;99.90;;;;;;5067498;28;19948;-75
2022/11/22 05:14:08;;;;;;;;;;;4.10;99.90;;;;;;5047319;28;19923;-75
2022/11/22 05:16:33;;;;;;;;;;;4.10;99.90;;;;;;5065833;28;20338;-75
2022/11/22 05:18:59;;;;;;;;;;;4.10;99.90;;;;;;5054757;28;19964;-75
2022/11/22 05:21:26;;;;;;;;;;;4.10;99.90;;;;;;5054723;28;19924;-77
2022/11/22 05:23:54;;;;;;;;;;;4.20;99.90;;;;;;5069690;28;19916;-75
2022/11/22 05:26:21;;;;;;;;;;;4.20;99.90;;;;;;5069496;28;19920;-75
2022/11/22 05:28:46;;;;;;;;;;;4.20;99.90;;;;;;5055716;28;19920;-75
2022/11/22 05:31:13;;;;;;;;;;;4.20;99.90;;;;;;5052785;28;19942;-75
2022/11/22 05:33:40;;;;;;;;;;;4.20;99.90;;;;;;5055917;28;19923;-75
2022/11/22 05:36:07;;;;;;;;;;;4.20;99.90;;;;;;5086621;28;19916;-75
2022/11/22 05:38:36;;;;;;;;;;;4.20;99.90;;;;;;5033305;28;19974;-75
2022/11/22 05:41:03;;;;;;;;;;;4.20;99.90;;;;;;5052945;28;19975;-75
2022/11/22 05:43:29;;;;;;;;;;;4.30;99.90;;;;;;5072567;28;20475;-75
2022/11/22 05:45:55;;;;;;;;;;;4.30;99.90;;;;;;5051033;28;20136;-75
2022/11/22 05:48:20;;;;;;;;;;;4.20;99.90;;;;;;5071478;28;19924;-75
2022/11/22 05:50:46;;;;;;;;;;;4.10;99.90;;;;;;5067391;28;19916;-75
2022/11/22 05:53:12;;;;;;;;;;;4.00;99.90;;;;;;5043897;28;19923;-75
2022/11/22 05:55:37;;;;;;;;;;;4.00;99.90;;;;;;5067804;28;19928;-75
2022/11/22 05:58:03;;;;;;;;;;;3.90;99.90;;;;;;5067472;28;20402;-75
2022/11/22 06:00:28;;;;;;;;;;;3.80;99.90;;;;;;5049701;28;20311;-75
2022/11/22 06:03:01;;;;;;;;;;;3.70;99.90;;;;;;5050325;28;20388;-75
2022/11/22 06:05:27;;;;;;;;;;;3.60;99.90;;;;;;5067865;28;20339;-75
2022/11/22 06:07:55;;;;;;;;;;;3.50;99.90;;;;;;5069490;28;20006;-75
2022/11/22 06:10:21;;;;;;;;;;;3.50;99.90;;;;;;5053608;28;20407;-75
2022/11/22 06:12:46;;;;;;;;;;;3.40;99.90;;;;;;5068525;28;19927;-75
2022/11/22 06:15:12;;;;;;;;;;;3.40;99.90;;;;;;5053357;28;20462;-75
2022/11/22 06:17:38;;;;;;;;;;;3.30;99.90;;;;;;5050865;28;19966;-75
2022/11/22 06:20:03;;;;;;;;;;;3.20;99.90;;;;;;5068494;28;19932;-75
2022/11/22 06:22:29;;;;;;;;;;;3.20;99.90;;;;;;5068272;28;19916;-75
2022/11/22 06:24:55;;;;;;;;;;;3.10;99.90;;;;;;5067142;28;19924;-75
2022/11/22 06:27:20;;;;;;;;;;;3.10;99.90;;;;;;5069351;28;19959;-75
2022/11/22 06:29:46;;;;;;;;;;;3.00;99.90;;;;;;5053483;28;19916;-75
2022/11/22 06:32:12;;;;;;;;;;;3.00;99.90;;;;;;5072522;28;19939;-75
2022/11/22 06:34:40;;;;;;;;;;;3.00;99.90;;;;;;5068751;28;19984;-75
2022/11/22 06:37:05;;;;;;;;;;;3.00;99.90;;;;;;5067183;28;19955;-75
2022/11/22 06:39:31;;;;;;;;;;;2.90;99.90;;;;;;5066873;28;19920;-75
2022/11/22 06:41:57;;;;;;;;;;;2.90;99.90;;;;;;5051798;28;19999;-75
2022/11/22 06:44:23;;;;;;;;;;;2.90;99.90;;;;;;5055845;28;19980;-75
2022/11/22 06:46:49;;;;;;;;;;;2.90;99.90;;;;;;5073798;28;19992;-75
2022/11/22 06:49:14;;;;;;;;;;;2.90;99.90;;;;;;5053858;28;19920;-75
2022/11/22 06:51:40;;;;;;;;;;;2.90;99.90;;;;;;5088523;28;20400;-75
2022/11/22 06:54:09;;;;;;;;;;;2.90;99.90;;;;;;5050760;28;19923;-75
2022/11/22 06:56:36;;;;;;;;;;;2.90;99.90;;;;;;5071263;28;19947;-75
2022/11/22 06:59:02;;;;;;;;;;;2.90;99.90;;;;;;5066577;28;19934;-75
2022/11/22 07:01:29;;;;;;;;;;;2.90;99.90;;;;;;5069449;28;20544;-75
2022/11/22 07:03:56;;;;;;;;;;;2.80;99.90;;;;;;5048169;28;20391;-75
2022/11/22 07:06:23;;;;;;;;;;;2.90;99.90;;;;;;5065305;28;20357;-75
2022/11/22 07:08:49;;;;;;;;;;;2.90;99.90;;;;;;5066748;28;19917;-75
2022/11/22 07:11:16;;;;;;;;;;;2.90;99.90;;;;;;5062796;28;19920;-75
2022/11/22 07:13:42;;;;;;;;;;;3.00;99.90;;;;;;5051912;28;19931;-74
2022/11/22 07:16:09;;;;;;;;;;;2.90;99.90;;;;;;5065052;28;20331;-75
2022/11/22 07:18:34;;;;;;;;;;;3.00;99.90;;;;;;5059871;28;20161;-75
2022/11/22 07:21:01;;;;;;;;;;;2.90;99.90;;;;;;5054572;28;19966;-74
2022/11/22 07:23:27;;;;;;;;;;;3.00;99.90;;;;;;5052555;28;19922;-74
2022/11/22 07:25:53;;;;;;;;;;;2.90;99.90;;;;;;5047686;28;19923;-74
2022/11/22 07:28:18;;;;;;;;;;;2.90;99.90;;;;;;5049672;28;19916;-74
2022/11/22 07:30:44;;;;;;;;;;;2.90;99.90;;;;;;5064582;28;19920;-74
2022/11/22 07:33:09;;;;;;;;;;;2.90;99.90;;;;;;5032464;28;20039;-74
2022/11/22 07:35:35;;;;;;;;;;;2.90;99.90;;;;;;5054023;28;19917;-75
2022/11/22 07:38:01;;;;;;;;;;;2.80;99.90;;;;;;5066852;28;19996;-75
2022/11/22 07:40:27;;;;;;;;;;;2.80;99.90;;;;;;5072406;28;20011;-75
2022/11/22 07:42:52;;;;;;;;;;;2.80;99.90;;;;;;5071785;28;19924;-75
2022/11/22 07:45:18;;;;;;;;;;;2.80;99.90;;;;;;5071616;28;19920;-75
2022/11/22 07:47:44;;;;;;;;;;;2.90;99.90;;;;;;5043024;28;19958;-75
2022/11/22 07:50:09;;;;;;;;;;;3.00;99.90;;;;;;5054641;28;20461;-75
2022/11/22 07:52:35;;;;;;;;;;;3.10;99.90;;;;;;5056057;28;20487;-75
2022/11/22 07:55:01;;;;;;;;;;;3.10;99.90;;;;;;5048646;28;20312;-75
2022/11/22 07:57:26;;;;;;;;;;;3.20;99.90;;;;;;5050654;28;20343;-75
2022/11/22 07:59:52;;;;;;;;;;;3.30;99.90;;;;;;5063514;28;19931;-75
2022/11/22 08:02:18;;;;;;;;;;;3.30;99.90;;;;;;5034396;28;20426;-77
2022/11/22 08:04:43;;;;;;;;;;;3.40;99.90;;;;;;5052448;28;19916;-75
2022/11/22 08:07:09;;;;;;;;;;;3.50;99.90;;;;;;5042689;28;20006;-75
2022/11/22 08:09:35;;;;;;;;;;;3.60;99.90;;;;;;5037543;28;19935;-76
2022/11/22 08:12:00;;;;;;;;;;;3.60;99.90;;;;;;5041983;28;20269;-75
2022/11/22 08:14:26;;;;;;;;;;;3.70;99.90;;;;;;5048265;28;19920;-76
2022/11/22 08:16:52;;;;;;;;;;;3.80;99.90;;;;;;5060745;28;19920;-75
2022/11/22 08:19:18;;;;;;;;;;;3.80;99.90;;;;;;5078119;28;19927;-75
2022/11/22 08:21:44;;;;;;;;;;;3.90;99.90;;;;;;5065627;28;19921;-76
2022/11/22 08:24:09;;;;;;;;;;;3.90;99.90;;;;;;5048315;28;20001;-75
2022/11/22 08:26:35;;;;;;;;;;;3.90;99.90;;;;;;5068329;28;20073;-75
2022/11/22 08:29:04;;;;;;;;;;;4.00;99.90;;;;;;5034030;28;19921;-75
2022/11/22 08:31:30;;;;;;;;;;;4.00;99.90;;;;;;5048007;28;19924;-76
2022/11/22 08:33:56;;;;;;;;;;;4.10;99.90;;;;;;5047562;28;20148;-76
2022/11/22 08:36:21;;;;;;;;;;;4.10;99.90;;;;;;5060247;28;20141;-76
2022/11/22 08:38:47;;;;;;;;;;;4.10;99.90;;;;;;5061064;28;19927;-76
2022/11/22 08:41:13;;;;;;;;;;;4.20;99.90;;;;;;5062763;28;19931;-76
2022/11/22 08:43:39;;;;;;;;;;;4.10;99.90;;;;;;5043287;28;19916;-75
2022/11/22 08:46:04;;;;;;;;;;;4.20;99.90;;;;;;5060936;28;19983;-76
2022/11/22 08:48:31;;;;;;;;;;;4.20;99.90;;;;;;5060469;28;19917;-76
2022/11/22 08:50:57;;;;;;;;;;;4.20;99.90;;;;;;5048959;28;20360;-76
2022/11/22 08:53:24;;;;;;;;;;;4.20;99.90;;;;;;5061100;28;19974;-76
2022/11/22 08:55:50;;;;;;;;;;;4.30;99.90;;;;;;5061761;28;19920;-76
2022/11/22 08:58:16;;;;;;;;;;;4.30;99.90;;;;;;5041474;28;19920;-76
2022/11/22 09:00:42;;;;;;;;;;;4.30;99.90;;;;;;5042331;28;19924;-76
2022/11/22 09:03:08;;;;;;;;;;;4.30;99.90;;;;;;5053146;28;20388;-76
2022/11/22 09:05:33;;;;;;;;;;;4.40;99.90;;;;;;5061819;28;20321;-76
2022/11/22 09:08:00;;;;;;;;;;;4.40;99.90;;;;;;5045314;28;19939;-76
2022/11/22 09:10:26;;;;;;;;;;;4.40;99.90;;;;;;5058589;28;20030;-76
2022/11/22 09:12:51;;;;;;;;;;;4.40;99.90;;;;;;5042415;28;20003;-76
2022/11/22 09:15:17;;;;;;;;;;;4.40;99.90;;;;;;5041991;28;19920;-76
2022/11/22 09:17:43;;;;;;;;;;;4.50;99.90;;;;;;5060279;28;20009;-75
2022/11/22 09:20:09;;;;;;;;;;;4.50;99.90;;;;;;5035630;28;19920;-76
2022/11/22 09:22:35;;;;;;;;;;;4.50;99.90;;;;;;5056348;28;19967;-76
2022/11/22 09:25:00;;;;;;;;;;;4.50;99.90;;;;;;5055805;28;19921;-76
2022/11/22 09:27:26;;;;;;;;;;;4.50;99.90;;;;;;5055748;28;20289;-76
2022/11/22 09:29:52;;;;;;;;;;;4.50;99.90;;;;;;5037074;28;19917;-76
2022/11/22 09:32:17;;;;;;;;;;;4.50;99.90;;;;;;5043094;28;19920;-75
2022/11/22 09:34:43;;;;;;;;;;;4.50;99.90;;;;;;5057439;28;20011;-76
2022/11/22 09:37:09;;;;;;;;;;;4.50;99.90;;;;;;5046583;28;19924;-76
2022/11/22 09:39:34;;;;;;;;;;;4.60;99.90;;;;;;5058458;28;19930;-76
2022/11/22 09:42:00;;;;;;;;;;;4.60;99.90;;;;;;5050745;28;19965;-76
2022/11/22 09:44:44;;;;;;;;;;;4.60;99.90;;;;;;5057098;28;19920;-75
2022/11/22 09:47:09;;;;;;;;;;;4.60;99.90;;;;;;5058963;28;19974;-76
2022/11/22 09:50:10;;;;;;;;;;;4.70;99.90;;;;;;5048577;28;19924;-76
2022/11/22 09:52:42;;;;;;;;;;;4.80;99.90;;;;;;5023212;28;19968;-75
2022/11/22 09:55:08;;;;;;;;;;;4.80;99.90;;;;;;5038784;28;19920;-76
2022/11/22 09:57:40;;;;;;;;;;;4.80;99.90;;;;;;5060763;28;19955;-76
2022/11/22 10:00:14;;;;;;;;;;;4.90;99.90;;;;;;5064340;28;19967;-76
2022/11/22 10:02:42;;;;;;;;;;;4.90;99.90;;;;;;5032533;28;20368;-76
2022/11/22 10:05:21;;;;;;;;;;;4.90;99.90;;;;;;5058000;28;20032;-76
2022/11/22 10:07:49;;;;;;;;;;;4.90;99.90;;;;;;5065617;28;19966;-76
2022/11/22 10:10:21;;;;;;;;;;;5.00;99.90;;;;;;5062535;28;19924;-76
2022/11/22 10:12:50;;;;;;;;;;;5.00;99.90;;;;;;5065363;28;19923;-76
2022/11/22 10:15:32;;;;;;;;;;;5.10;99.90;;;;;;5065820;28;19924;-76
2022/11/22 10:18:00;;;;;;;;;;;5.10;99.90;;;;;;5064651;28;19920;-75
2022/11/22 10:20:27;;;;;;;;;;;5.10;99.90;;;;;;5062545;28;20005;-76
2022/11/22 10:22:53;;;;;;;;;;;5.10;99.90;;;;;;5063396;28;20371;-76
2022/11/22 10:25:20;;;;;;;;;;;5.10;99.90;;;;;;5046605;28;19993;-76
2022/11/22 10:27:51;;;;;;;;;;;5.20;99.90;;;;;;5046417;28;19921;-76
2022/11/22 10:30:18;;;;;;;;;;;5.20;99.90;;;;;;5060839;28;19920;-76
2022/11/22 10:32:47;;;;;;;;;;;5.20;99.90;;;;;;5060891;28;20074;-77
2022/11/22 10:35:29;;;;;;;;;;;5.20;99.90;;;;;;5045884;28;19923;-77
2022/11/22 10:38:27;;;;;;;;;;;5.20;99.90;;;;;;5059639;28;19928;-76
2022/11/22 10:40:56;;;;;;;;;;;5.20;99.90;;;;;;5061541;28;19959;-77
2022/11/22 10:43:26;;;;;;;;;;;5.30;99.90;;;;;;5057138;28;19920;-77
2022/11/22 10:45:57;;;;;;;;;;;5.30;99.90;;;;;;5045084;28;19920;-76
2022/11/22 10:48:33;;;;;;;;;;;5.30;99.90;;;;;;5047919;28;19923;-75
2022/11/22 10:51:02;;;;;;;;;;;5.30;99.90;;;;;;5082089;28;19917;-76
2022/11/22 10:53:37;;;;;;;;;;;5.30;99.90;;;;;;5044010;28;19961;-76
2022/11/22 10:56:15;;;;;;;;;;;5.30;99.90;;;;;;5047632;28;19970;-75
2022/11/22 10:58:47;;;;;;;;;;;5.30;99.90;;;;;;5057511;28;19921;-76
2022/11/22 11:01:19;;;;;;;;;;;5.30;99.90;;;;;;5047315;28;20474;-76
2022/11/22 11:03:46;;;;;;;;;;;5.30;99.90;;;;;;5061476;28;20592;-77
2022/11/22 11:06:20;;;;;;;;;;;5.40;99.90;;;;;;5064878;28;20742;-76
2022/11/22 11:08:49;;;;;;;;;;;5.50;99.90;;;;;;5062229;28;19970;-77
2022/11/22 11:11:15;;;;;;;;;;;5.50;99.90;;;;;;5069184;28;20019;-75
2022/11/22 11:13:42;;;;;;;;;;;5.50;99.90;;;;;;5048748;28;20220;-77
2022/11/22 11:16:09;;;;;;;;;;;5.60;99.90;;;;;;5047096;28;20369;-76
2022/11/22 11:18:42;;;;;;;;;;;5.60;99.90;;;;;;5063949;28;19929;-77
2022/11/22 11:21:11;;;;;;;;;;;5.70;99.90;;;;;;5051110;28;20435;-76
2022/11/22 11:23:36;;;;;;;;;;;5.70;99.90;;;;;;5068401;28;19943;-76
2022/11/22 11:26:18;;;;;;;;;;;5.80;99.90;;;;;;5032970;28;20253;-76
2022/11/22 11:28:44;;;;;;;;;;;5.80;99.90;;;;;;5066910;28;19999;-78
2022/11/22 11:31:12;;;;;;;;;;;5.90;99.90;;;;;;5065318;28;20027;-76
2022/11/22 11:33:39;;;;;;;;;;;5.90;99.90;;;;;;5068617;28;19978;-76
2022/11/22 11:36:06;;;;;;;;;;;6.00;99.90;;;;;;5068224;28;19931;-76
2022/11/22 11:38:36;;;;;;;;;;;6.00;99.90;;;;;;5068226;28;20089;-76
2022/11/22 11:41:16;;;;;;;;;;;6.10;99.90;;;;;;5049486;28;19917;-76
2022/11/22 11:43:42;;;;;;;;;;;6.20;99.90;;;;;;5085662;28;20282;-76
2022/11/22 11:46:27;;;;;;;;;;;6.30;99.90;;;;;;5086329;28;19916;-76
2022/11/22 11:49:11;;;;;;;;;;;6.30;99.90;;;;;;5043811;28;19966;-76
2022/11/22 11:52:00;;;;;;;;;;;6.40;99.90;;;;;;5064185;28;19920;-76
2022/11/22 11:54:46;;;;;;;;;;;6.40;99.90;;;;;;5032496;28;19916;-76
2022/11/22 11:57:18;;;;;;;;;;;6.40;99.90;;;;;;5064198;28;19927;-76
2022/11/22 11:59:46;;;;;;;;;;;6.40;99.90;;;;;;5063859;28;19928;-76
2022/11/22 12:02:15;;;;;;;;;;;6.40;99.90;;;;;;5046098;28;19939;-76
2022/11/22 12:04:48;;;;;;;;;;;6.30;99.90;;;;;;5062723;28;20029;-77
2022/11/22 12:07:18;;;;;;;;;;;6.30;99.90;;;;;;5051116;28;19916;-75
2022/11/22 12:09:45;;;;;;;;;;;6.30;99.90;;;;;;5059205;28;20303;-75
2022/11/22 12:12:30;;;;;;;;;;;6.30;99.90;;;;;;5055453;28;19917;-76
2022/11/22 12:15:08;;;;;;;;;;;6.30;99.90;;;;;;5066727;28;19923;-77
2022/11/22 12:17:36;;;;;;;;;;;6.30;99.90;;;;;;5069403;28;19920;-77
2022/11/22 12:20:03;;;;;;;;;;;6.30;99.90;;;;;;5062470;28;19927;-76
2022/11/22 12:22:36;;;;;;;;;;;6.30;99.90;;;;;;5061803;28;19920;-76
2022/11/22 12:25:22;;;;;;;;;;;6.30;99.90;;;;;;5066346;28;19916;-76
2022/11/22 12:27:47;;;;;;;;;;;6.30;99.90;;;;;;5057708;28;19917;-76
2022/11/22 12:30:13;;;;;;;;;;;6.30;99.90;;;;;;5049068;28;19920;-76
2022/11/22 12:32:40;;;;;;;;;;;6.30;99.90;;;;;;5067162;28;20753;-76
2022/11/22 12:35:10;;;;;;;;;;;6.30;99.90;;;;;;5052630;28;19920;-76
2022/11/22 12:37:47;;;;;;;;;;;6.30;99.90;;;;;;5065288;28;19923;-76
2022/11/22 12:40:24;;;;;;;;;;;6.30;99.90;;;;;;5049187;28;20270;-76
2022/11/22 12:42:53;;;;;;;;;;;6.30;99.90;;;;;;5070788;28;19920;-76
2022/11/22 12:45:18;;;;;;;;;;;6.40;99.90;;;;;;5074419;28;19939;-76
2022/11/22 12:47:44;;;;;;;;;;;6.40;99.90;;;;;;5073429;28;19916;-76
2022/11/22 12:50:23;;;;;;;;;;;6.40;99.90;;;;;;5067871;28;19942;-76
2022/11/22 12:53:02;;;;;;;;;;;6.50;99.90;;;;;;5056638;28;19927;-76
2022/11/22 12:55:50;;;;;;;;;;;6.50;99.90;;;;;;5072825;28;19920;-77
2022/11/22 12:58:35;;;;;;;;;;;6.50;99.90;;;;;;5056694;28;19963;-77
2022/11/22 13:01:10;;;;;;;;;;;6.50;99.90;;;;;;5043891;28;20369;-76
2022/11/22 13:03:37;;;;;;;;;;;6.50;99.90;;;;;;5064527;28;20140;-76
2022/11/22 13:06:05;;;;;;;;;;;6.50;99.90;;;;;;5066180;28;19931;-76
2022/11/22 13:08:42;;;;;;;;;;;6.50;99.90;;;;;;5064938;28;19916;-76
2022/11/22 13:11:37;;;;;;;;;;;6.50;99.90;;;;;;5068366;28;19928;-76
2022/11/22 13:14:32;;;;;;;;;;;6.50;99.90;;;;;;5065894;28;20310;-76
2022/11/22 13:16:58;;;;;;;;;;;6.40;99.90;;;;;;5038751;28;19966;-76
2022/11/22 13:19:25;;;;;;;;;;;6.40;99.90;;;;;;5037157;28;19972;-76
2022/11/22 13:22:00;;;;;;;;;;;6.40;99.90;;;;;;5042624;28;19987;-76
2022/11/22 13:24:31;;;;;;;;;;;6.40;99.90;;;;;;5049710;28;20016;-76
2022/11/22 13:27:17;;;;;;;;;;;6.40;99.90;;;;;;5086708;28;19917;-76
2022/11/22 13:29:43;;;;;;;;;;;6.40;99.90;;;;;;5047130;28;19920;-76
2022/11/22 13:32:12;;;;;;;;;;;6.40;99.90;;;;;;5064514;28;20355;-75
2022/11/22 13:34:42;;;;;;;;;;;6.40;99.90;;;;;;5063412;28;19921;-76
2022/11/22 13:37:13;;;;;;;;;;;6.40;99.90;;;;;;5067340;28;20288;-76
2022/11/22 13:39:46;;;;;;;;;;;6.40;99.90;;;;;;5045869;28;19917;-75
2022/11/22 13:42:18;;;;;;;;;;;6.40;99.90;;;;;;5044399;28;20267;-75
2022/11/22 13:44:49;;;;;;;;;;;6.40;99.90;;;;;;5067955;28;19923;-76
2022/11/22 13:47:15;;;;;;;;;;;6.40;99.90;;;;;;5064378;28;19920;-75
2022/11/22 13:49:43;;;;;;;;;;;6.40;99.90;;;;;;5048525;28;19917;-75
2022/11/22 13:52:12;;;;;;;;;;;6.40;99.90;;;;;;5065589;28;19931;-75
2022/11/22 13:54:46;;;;;;;;;;;6.40;99.90;;;;;;5066354;28;20019;-75
2022/11/22 13:57:21;;;;;;;;;;;6.30;99.90;;;;;;5035110;28;19921;-75
2022/11/22 14:00:07;;;;;;;;;;;6.30;99.90;;;;;;5057670;28;19926;-75
2022/11/22 14:02:33;;;;;;;;;;;6.30;99.90;;;;;;5048112;28;19927;-76
2022/11/22 14:04:58;;;;;;;;;;;6.20;99.90;;;;;;5046280;28;20356;-76
2022/11/22 14:07:36;;;;;;;;;;;6.20;99.90;;;;;;5048794;28;20140;-75
2022/11/22 14:10:03;;;;;;;;;;;6.10;99.90;;;;;;5062499;28;20363;-75
2022/11/22 14:12:28;;;;;;;;;;;6.10;99.90;;;;;;5063838;28;19927;-75
2022/11/22 14:15:09;;;;;;;;;;;6.10;99.90;;;;;;5065004;28;19916;-75
2022/11/22 14:17:41;;;;;;;;;;;6.10;99.90;;;;;;5064269;28;19959;-75
2022/11/22 14:20:10;;;;;;;;;;;6.00;99.90;;;;;;5068252;28;19924;-76
2022/11/22 14:22:48;;;;;;;;;;;6.00;99.90;;;;;;5063870;28;19931;-76
2022/11/22 14:25:17;;;;;;;;;;;6.00;99.90;;;;;;5064030;28;20330;-75
2022/11/22 14:27:53;;;;;;;;;;;6.00;99.90;;;;;;5062327;28;19916;-76
2022/11/22 14:30:36;;;;;;;;;;;6.00;99.90;;;;;;5055496;28;19916;-76
2022/11/22 14:33:03;;;;;;;;;;;6.00;99.90;;;;;;5065429;28;19916;-76
2022/11/22 14:35:33;;;;;;;;;;;6.00;99.90;;;;;;5045720;28;19998;-76
2022/11/22 14:38:01;;;;;;;;;;;6.00;99.90;;;;;;5042734;28;19917;-76
2022/11/22 14:40:39;;;;;;;;;;;6.00;99.90;;;;;;5043906;28;19966;-76
2022/11/22 14:43:25;;;;;;;;;;;6.00;99.90;;;;;;5035676;28;19925;-77
2022/11/22 14:45:52;;;;;;;;;;;6.00;99.90;;;;;;5063089;28;20323;-76
2022/11/22 14:48:18;;;;;;;;;;;6.00;99.90;;;;;;5063391;28;19920;-76
2022/11/22 14:50:47;;;;;;;;;;;6.00;99.90;;;;;;5065537;28;19920;-76
2022/11/22 14:53:18;;;;;;;;;;;6.00;99.90;;;;;;5058072;28;20337;-75